Matías Acosta

Scout - Vélez
4 Dez 2027
Samstag
Verarbeitung

Persönlichkeit

Anpassungsfähigkeit (5) Ehrgeiz (8) Kontroverse (3) Loyalität (10) Druck (6) Professionalität (15) Fairness (17) Temperament (13)

Profil

Trainerstil Demokratisch
Lizenz Kontinentale A
Entschlossenheit 14
Menschenführung 14
Motivation 10
Disziplin 9
Arbeitszufriedenheit
100%
Ermüdung
0%
Rolle Scout
Gehalt 39.7K p/W
Vertrag 14.03.2030

Leistung

Verhalten Gut
Trainingseffektivität
49%
Spielerentwicklung
65%
Verletzungsprävention
65%
Taktische Umsetzung
35%

Letzte Ereignisse

Nahm an einer Scouting-Besprechung teil jetzt
Empfahl ein Transferziel jetzt
Empfahl ein Transferziel jetzt
Empfahl ein Transferziel jetzt
Empfahl ein Transferziel jetzt
Nahm an einer Scouting-Besprechung teil jetzt
Nahm an einer Scouting-Besprechung teil jetzt
Spieler begutachtet jetzt

Aktuell beobachtet

225
Spieler Verein Status Fähigkeit Vertrauen Beobachtet Zuletzt beobachtet Letzte Stimme
Juan Pablo Ludueña Unión de Santa Fe Aktiv 121 / 109 40% 2 01.12.2027 -
Leonel Pollacchi San Telmo Aktiv 116 / 119 40% 2 01.12.2027 -
Tobías Leiva Estudiantes Aktiv 114 / 119 40% 2 01.12.2027 -
Mathías de Ritis San Lorenzo Aktiv 121 / 113 40% 3 29.11.2027 -
Tomás Ferreyra Defensores Unidos Aktiv 112 / 102 40% 3 29.11.2027 -
Lucas Monzón Alvarado Aktiv 113 / 103 40% 1 29.11.2027 -
Tomás Silva Platense Aktiv 128 / 119 40% 2 28.11.2027 -
Lautaro Di Lollo Boca Juniors Aktiv 132 / 136 40% 5 27.11.2027 -
Mateo Mendoza Godoy Cruz Aktiv 126 / 122 40% 3 27.11.2027 -
Santiago Esquivel Banfield Aktiv 115 / 126 40% 1 27.11.2027 -
Mauricio Amaro Atlanta United FC Aktiv 129 / 143 40% 1 26.11.2027 -
Jonathan De Irastorza Levante Aktiv 133 / 138 40% 1 26.11.2027 -
Leandro Lucero Temperley Aktiv 120 / 116 40% 2 25.11.2027 -
Juan José Cardozo Argentinos Juniors Aktiv 117 / 112 40% 2 25.11.2027 -
Édier Ocampo Vancouver Whitecaps Aktiv 116 / 113 40% 2 24.11.2027 -
Aron Agüero Maipú Aktiv 108 / 105 40% 3 24.11.2027 -
Samuel Lucero Defensa y Justicia Aktiv 112 / 133 40% 1 24.11.2027 -
Tomás Porra Barracas Central Aktiv 112 / 111 40% 3 23.11.2027 -
Valentín Moreno Tigre Aktiv 119 / 124 40% 2 23.11.2027 -
Valentín Serrano Arsenal Aktiv 112 / 111 40% 1 21.11.2027 -
Gabriel Díaz Patronato Aktiv 119 / 108 40% 1 19.11.2027 -
Federico Pérez Agropecuario Argentino Aktiv 110 / 111 40% 3 18.11.2027 -
Iván Vaquero Morón Aktiv 112 / 117 40% 1 16.11.2027 -
Máximo Perrone Como Aktiv 154 / 140 40% 1 16.11.2027 -
Nicolás Mosca Atlanta Aktiv 109 / 107 40% 1 14.11.2027 -
Lisandro Montenegro Chacarita Juniors Aktiv 117 / 114 40% 2 13.11.2027 -
Santiago González Tigre Aktiv 125 / 126 40% 2 10.11.2027 -
César Pérez Defensa y Justicia Aktiv 122 / 121 40% 1 09.11.2027 -
Fabricio Corbalán Boca Juniors Aktiv 123 / 119 40% 1 08.11.2027 -
Igor Jesus Los Angeles Football Club Aktiv 118 / 125 40% 1 06.11.2027 -
Jeremías Gallard Talleres Aktiv 103 / 112 79% 1 12.07.2027 Befürworten
Stanislav Agkatsev TSG Hoffenheim Verhandlung 132 / 133 66% 1 01.06.2027 Befürworten
Konstantin Tyukavin Arsenal Verhandlung 132 / 133 66% 1 01.06.2027 Befürworten
Mao Hosoya Manchester City Aktiv 134 / 135 67% 1 01.06.2027 Befürworten
Julio Enciso Ipswich Town Aktiv 152 / 136 40% 6 28.05.2027 -
Pablo Solari Spartak Moscow Aktiv 127 / 136 40% 7 25.05.2027 -
Yankuba Minteh Brighton Aktiv 148 / 144 40% 3 25.05.2027 -
Thiago Almada Fiorentina Aktiv 147 / 137 40% 6 24.05.2027 -
Zeidane Inoussa Swansea City Aktiv 130 / 125 40% 1 24.05.2027 -
Jeon Jin-Woo Sheffield Wednesday Aktiv 130 / 132 40% 5 23.05.2027 -
Matías Soulé AS Roma Aktiv 163 / 154 40% 5 23.05.2027 -
Ignacio Aliseda Cerro Porteno Aktiv 130 / 127 40% 2 22.05.2027 -
Kenny Tete Fulham Aktiv 139 / 155 40% 4 22.05.2027 -
Kevin Schade Brentford Aktiv 147 / 145 40% 6 22.05.2027 -
Ethan Galbraith Swansea City Aktiv 130 / 121 40% 4 22.05.2027 -
Jacob Ramsey Newcastle United Aktiv 146 / 160 40% 2 22.05.2027 -
Nordi Mukiele Sunderland Aktiv 151 / 155 40% 1 22.05.2027 -
Giovani Lo Celso AC Milan Aktiv 146 / 138 40% 5 20.05.2027 -
Tariq Lamptey Queens Park Rangers Aktiv 142 / 123 40% 3 19.05.2027 -
Tyrell Malacia Derby County Aktiv 141 / 141 40% 4 18.05.2027 -
Ramón Terrats Getafe Aktiv 138 / 147 40% 3 18.05.2027 -
Helinho Toluca Aktiv 129 / 122 40% 5 16.05.2027 -
Santiago Pierotti Lecce Aktiv 124 / 143 40% 2 16.05.2027 -
Enzo Barrenechea Burnley Aktiv 149 / 141 40% 5 15.05.2027 -
Nicolò Barella Inter Aktiv 172 / 175 40% 2 15.05.2027 Mehr Infos nötig
Ronald Swansea City Aktiv 135 / 127 40% 1 15.05.2027 -
Matt O'Riley Brighton Aktiv 150 / 149 40% 2 13.05.2027 -
Marcus Edwards Burnley Aktiv 139 / 151 40% 1 13.05.2027 -
John McGinn Aston Villa Aktiv 157 / 146 40% 2 12.05.2027 -
Solly March Brighton Aktiv 158 / 152 40% 2 10.05.2027 -
Manu Koné AS Roma Aktiv 169 / 157 40% 2 09.05.2027 -
Tim Iroegbunam Hull City Aktiv 140 / 131 40% 2 09.05.2027 -
Boubacar Kamara Aston Villa Aktiv 169 / 152 40% 1 09.05.2027 -
Yehor Yarmoliuk Brentford Aktiv 142 / 140 40% 5 06.05.2027 -
Igor Burnley Aktiv 139 / 153 40% 1 06.05.2027 -
Myles Roberts Doncaster Rovers Aktiv 106 / 116 40% 2 05.05.2027 -
Kostantis Tzolakis Hull City Aktiv 136 / 148 40% 6 05.05.2027 -
Kevin Fulham Aktiv 155 / 135 40% 4 03.05.2027 -
Loum Tchaouna Coventry City Aktiv 142 / 129 40% 2 03.05.2027 -
Brennan Johnson Everton Aktiv 154 / 151 40% 2 02.05.2027 -
Koki Saito Queens Park Rangers Aktiv 128 / 119 40% 1 01.05.2027 -
Ismaïla Sarr Crystal Palace Aktiv 159 / 158 40% 2 30.04.2027 -
Óscar Mingueza Crystal Palace Aktiv 147 / 141 40% 6 27.04.2027 -
Brooke Norton-Cuffy Hull City Aktiv 140 / 140 40% 1 27.04.2027 -
Ryan Sessegnon Fulham Aktiv 146 / 136 40% 1 27.04.2027 -
Dango Ouattara Brentford Aktiv 148 / 159 40% 2 25.04.2027 -
Rodrigo De Paul Chelsea Aktiv 161 / 143 40% 2 23.04.2027 -
Ainsley Maitland-Niles Everton Aktiv 135 / 129 40% 1 19.04.2027 -
Radek Vítek Middlesbrough Aktiv 142 / 137 40% 7 17.04.2027 -
Michael Cooper Sheffield United Aktiv 133 / 132 40% 5 17.04.2027 -
Nahuel Molina AS Roma Aktiv 147 / 148 40% 5 17.04.2027 -
Shea Charles Southampton Aktiv 132 / 147 40% 1 17.04.2027 -
Bento Lokomotiv Moscow Aktiv 139 / 146 40% 3 16.04.2027 -
Luca Gemello Perugia Aktiv 115 / 126 40% 1 16.04.2027 -
Finn Azaz Southampton Aktiv 131 / 122 40% 1 14.04.2027 -
Rumarn Burrell Queens Park Rangers Aktiv 124 / 119 40% 1 12.04.2027 -
Sven Botman Newcastle United Aktiv 164 / 153 40% 2 11.04.2027 -
Saša Lukić Ipswich Town Aktiv 148 / 155 40% 1 11.04.2027 -
Chemsdine Talbi Sunderland Aktiv 144 / 141 40% 1 09.04.2027 -
Xaver Schlager Nottingham Forest Aktiv 152 / 146 40% 1 09.04.2027 -
Max Johnston Derby County Aktiv 136 / 120 40% 1 09.04.2027 -
Carl Rushworth Coventry City Aktiv 136 / 131 40% 3 07.04.2027 Beobachten
Mohamed Camara Asante Kotoko Aktiv 92 / 89 40% 3 07.04.2027 -
Nathan Bishop AFC Wimbledon Aktiv 107 / 105 40% 2 07.04.2027 -
Carlos Alcaraz Everton Aktiv 138 / 131 40% 1 07.04.2027 -
Zian Flemming Ipswich Town Aktiv 133 / 145 40% 1 07.04.2027 -
Kiernan Dewsbury-Hall Everton Aktiv 157 / 135 40% 2 05.04.2027 -
Gerónimo Rivera Al Wahda Aktiv 130 / 118 40% 1 04.04.2027 -
Oliver Skipp Leicester City Aktiv 129 / 138 40% 1 03.04.2027 -
Max Bird Birmingham Aktiv 127 / 130 40% 1 03.04.2027 -
Hugo Gallardo Veracruz Aktiv 95 / 108 40% 3 30.03.2027 -
Olivier Boscagli Brighton Aktiv 151 / 133 40% 1 30.03.2027 -
Adam Wharton Crystal Palace Aktiv 148 / 161 40% 1 30.03.2027 -
Jordan Amissah Burton Albion Aktiv 97 / 93 40% 3 29.03.2027 -
Anthony Patterson Wrexham Aktiv 133 / 143 40% 4 29.03.2027 -
Tyler Adams Bournemouth Aktiv 153 / 139 40% 1 27.03.2027 -
Daniel Muñoz Nottingham Forest Aktiv 146 / 136 40% 4 21.03.2027 -
Liam Delap Nottingham Forest Aktiv 148 / 144 40% 1 18.03.2027 -
Juanlu Bournemouth Aktiv 142 / 135 40% 2 16.03.2027 -
Callum Brittain Middlesbrough Aktiv 135 / 118 40% 1 15.03.2027 -
Nathan Collins Brentford Aktiv 154 / 153 40% 2 14.03.2027 -
James Garner Everton Aktiv 157 / 136 40% 1 13.03.2027 -
Harry Clarke Preston Aktiv 123 / 141 40% 1 12.03.2027 -
Mathías Olivera Cesena Aktiv 154 / 132 40% 1 10.03.2027 -
Amadou Onana Newcastle United Aktiv 160 / 156 40% 1 10.03.2027 -
Taye Ashby-Hammond Cheltenham Town Aktiv 108 / 114 40% 2 06.03.2027 -
Đorđe Petrović Bournemouth Aktiv 147 / 136 40% 4 04.03.2027 -
Lorenzo Palmisani Frosinone Aktiv 130 / 144 40% 1 04.03.2027 -
Josh Keeley Luton Town Aktiv 121 / 130 40% 2 03.03.2027 -
Lukas Jensen Millwall Aktiv 126 / 132 40% 2 03.03.2027 -
Nicolás Domínguez Nottingham Forest Aktiv 139 / 131 40% 3 01.03.2027 -
Killian Cahill Leyton Orient Aktiv 108 / 115 40% 2 23.02.2027 -
Grégoire Coudert Burnley Aktiv 134 / 116 40% 1 18.02.2027 -
Zach Hemming Chesterfield Aktiv 114 / 94 40% 1 07.02.2027 -
Tomás Lingua Burnley Aktiv 100 / 96 40% 2 06.02.2027 -
Filip Marschall Stevenage Aktiv 108 / 118 40% 1 02.02.2027 -
George Wickens Lincoln City Aktiv 121 / 113 40% 1 31.01.2027 -
Fran Vieites Exeter City Aktiv 126 / 109 40% 1 27.01.2027 -
Williams Mahlangu SuperSport United Aktiv 112 / 107 40% 2 26.01.2027 -
James Trafford Leeds United Aktiv 143 / 150 40% 1 24.01.2027 -
Mohammed Galadima Aswan Aktiv 95 / 103 40% 1 24.01.2027 -
Mads Hermansen West Ham United Aktiv 134 / 141 40% 1 21.01.2027 -
Lucas Beltrán Sheffield Wednesday Aktiv 94 / 85 40% 1 14.01.2027 -
Christian Krasnodar Aktiv 139 / 128 40% 2 30.11.2026 -
Alan Velasco Boca Juniors Aktiv 131 / 121 40% 3 30.11.2026 -
Juan Bisanz Huracán Aktiv 132 / 135 40% 1 29.11.2026 -
Agustín Venezia Iquique Aktiv 109 / 106 40% 1 26.11.2026 -
Matías Gómez Valencia Aktiv 107 / 116 40% 1 26.11.2026 -
Tomás Chancalay Minnesota United FC Aktiv 119 / 137 40% 2 24.11.2026 -
Facundo Velazco San Marcos de Arica Aktiv 100 / 103 40% 1 24.11.2026 -
Tadeo Allende Inter Miami CF Aktiv 126 / 114 40% 1 24.11.2026 -
Iqraam Rayners Mamelodi Sundowns Aktiv 125 / 126 40% 3 22.11.2026 -
Ramiro Peralta Juventud Aktiv 114 / 117 40% 2 21.11.2026 -
Relebohile Mofokeng Orlando Pirates Aktiv 121 / 130 40% 1 21.11.2026 -
Agustín Paz Progreso Aktiv 115 / 119 40% 1 21.11.2026 -
Joaquín Pereyra Minnesota United FC Aktiv 122 / 130 40% 6 20.11.2026 -
Alex Luna Instituto Aktiv 124 / 133 40% 3 20.11.2026 -
Gonzalo Montiel River Plate Aktiv 129 / 132 40% 3 17.11.2026 -
Mauro Arambarri River Plate Aktiv 150 / 160 40% 2 17.11.2026 -
Milan van Ewijk Coventry City Aktiv 136 / 116 40% 1 17.11.2026 -
Joaquín Gho Argentinos Juniors Aktiv 128 / 133 40% 1 17.11.2026 -
Gonzalo Gamarra Floriana Aktiv 98 / 106 40% 1 17.11.2026 -
Santiago Toloza O'Higgins Aktiv 126 / 125 40% 2 16.11.2026 -
Walter Naranjo Tranmere Rovers Aktiv 104 / 88 40% 1 16.11.2026 -
Sergej Milinković-Savić Al-Hilal Aktiv 164 / 158 40% 2 12.11.2026 -
Alan Lescano Argentinos Juniors Aktiv 130 / 137 40% 1 09.11.2026 -
Gastón Lodico Racing Club Aktiv 123 / 137 40% 1 08.11.2026 -
Leandro Trossard Besiktas Aktiv 150 / 151 40% 2 06.11.2026 -
Marquinhos Spartak Moscow Aktiv 124 / 125 40% 1 05.11.2026 -
Nacho Vidal Lechia Aktiv 132 / 126 40% 3 02.11.2026 -
Sergio Reguilón Inter Miami CF Aktiv 138 / 149 40% 2 29.10.2026 -
Florentino Luís Ipswich Town Aktiv 145 / 135 40% 1 29.10.2026 -
Martín Payero Cremonese Aktiv 134 / 124 40% 1 29.10.2026 -
Anel Ahmedhodžić Burnley Aktiv 131 / 149 40% 1 28.10.2026 -
Juan Carlos Portillo River Plate Aktiv 123 / 120 40% 1 28.10.2026 -
Tomás Escalante Plaza Colonia Aktiv 126 / 119 40% 4 17.10.2026 -
Luciano Boggio Nacional Aktiv 122 / 125 40% 1 17.10.2026 -
Joseph Paintsil LA Galaxy Aktiv 123 / 117 40% 4 16.10.2026 -
Hidemasa Morita Hull City Aktiv 141 / 127 40% 1 15.10.2026 -
Rúben Neves Al-Hilal Aktiv 151 / 144 40% 2 14.10.2026 -
Julián Brea Cobresal Aktiv 102 / 98 40% 1 09.10.2026 -
Gonzalo Silva Progreso Aktiv 103 / 97 40% 1 09.10.2026 -
Tobías Bovone Deportivo Pereira Aktiv 109 / 118 40% 1 09.10.2026 -
Bobby Thomas Coventry City Aktiv 138 / 143 40% 1 07.10.2026 -
Davinson Sánchez Galatasaray Aktiv 145 / 144 40% 1 07.10.2026 -
Tobías Reinhart Universidad de Chile Aktiv 123 / 125 40% 4 06.10.2026 -
Esequiel Barco Spartak Moscow Aktiv 134 / 131 40% 3 23.09.2026 -
Carlos Rodríguez Cruz Azul Aktiv 135 / 129 40% 4 21.09.2026 -
Jesús Ricardo Angulo Toluca Aktiv 129 / 131 40% 2 20.09.2026 -
Oussama Idrissi Ferencvaros Aktiv 146 / 134 40% 2 20.09.2026 -
Djordje Mihailović Toronto FC Aktiv 133 / 139 40% 1 19.09.2026 -
Franco Romero Toluca Aktiv 130 / 128 40% 1 18.09.2026 -
Diego Martinez La Equidad Aktiv 126 / 122 40% 1 18.09.2026 -
Luca Langoni New England Revolution Aktiv 134 / 134 40% 1 17.09.2026 -
Alejandro Zendejas Club America Aktiv 141 / 124 40% 2 16.09.2026 -
Ezequiel Bullaude Santos Laguna Aktiv 130 / 125 40% 2 15.09.2026 -
Nicolás Garayalde Liverpool Montevideo Aktiv 116 / 119 40% 1 15.09.2026 -
Rafael Santos Borré River Plate Aktiv 128 / 123 40% 1 15.09.2026 -
Gabriel Pirani San Diego Football Club Aktiv 125 / 127 40% 1 15.09.2026 -
Riqui Puig LA Galaxy Aktiv 133 / 145 40% 1 13.09.2026 -
Diego Lainez Tigres Aktiv 130 / 133 40% 1 13.09.2026 -
Juan Velázquez Atlético Madrid Aktiv 118 / 114 40% 1 13.09.2026 -
Nicolás Castro Toluca Aktiv 120 / 121 40% 2 12.09.2026 -
Santiago Montiel Independiente Aktiv 124 / 128 40% 1 12.09.2026 -
Mathías Tomás Puebla Aktiv 116 / 101 40% 1 12.09.2026 -
Rubén Duarte Pumas UNAM Aktiv 124 / 124 40% 1 09.09.2026 -
Ezequiel Cañete Huachipato Aktiv 116 / 120 40% 1 08.09.2026 -
Emiliano Álvarez Progreso Aktiv 124 / 112 40% 1 08.09.2026 -
Martín Ojeda Orlando City Aktiv 138 / 119 40% 1 07.09.2026 -
Johan Martínez Deportivo Cali Aktiv 118 / 124 40% 1 07.09.2026 -
Alan García Wanderers Aktiv 116 / 118 40% 1 04.09.2026 -
Agustín Palavecino Cruz Azul Aktiv 135 / 127 40% 4 03.09.2026 -
Orbelín Pineda Monterrey Aktiv 135 / 137 40% 2 03.09.2026 -
Diego Rossi Monterrey Aktiv 128 / 128 40% 3 02.09.2026 -
Carlos Rotondi Cruz Azul Aktiv 134 / 140 40% 1 02.09.2026 -
Franco Alfonso Olimpia Aktiv 119 / 108 40% 1 31.08.2026 -
Mateo Garavito Deportivo Pasto Aktiv 119 / 127 40% 1 30.08.2026 -
Brais Méndez Columbus Crew Aktiv 140 / 135 40% 2 29.08.2026 -
Óliver Monterrey Aktiv 133 / 130 40% 1 28.08.2026 -
Ritsu Doan Gamba Osaka Aktiv 146 / 149 40% 2 26.08.2026 -
Breel Embolo Atlanta United FC Aktiv 136 / 135 40% 1 25.08.2026 -
Santiago Simón Toluca Aktiv 110 / 113 40% 2 20.08.2026 -
Sebastián Córdova Pumas UNAM Aktiv 139 / 135 40% 1 20.08.2026 -
Cristian Espinoza Nashville SC Aktiv 128 / 116 40% 1 18.08.2026 -
Maximiliano Araújo Sporting CP Aktiv 156 / 162 40% 1 18.08.2026 -
Carlos Álvarez Club America Aktiv 130 / 146 40% 2 17.08.2026 -
Pablo Ruiz Real Salt Lake Aktiv 113 / 109 40% 1 17.08.2026 -
Tijjani Reijnders Al-Qadisiyah Aktiv 155 / 142 40% 1 13.08.2026 -
Willer Ditta Cruz Azul Aktiv 143 / 128 40% 1 13.08.2026 -
Alan Varela Porto Aktiv 147 / 143 40% 2 10.08.2026 -
Juan David Cabal Juventus Aktiv 147 / 132 40% 2 09.08.2026 -
Nico Elvedi Leeds United Aktiv 134 / 149 40% 1 09.08.2026 -
Emiliano Ancheta Nacional Aktiv 111 / 120 40% 1 03.08.2026 -
Gonzalo Piovi Cruz Azul Aktiv 136 / 145 40% 1 02.08.2026 -
Romain Del Castillo Osasuna Aktiv 144 / 151 40% 1 01.08.2026 -